aviador You're here:

KEUF Decoded Metar

in _UNIDENTIFIED
Report Time2017-06-25 19:58:00
UTC Time2017-06-25 20:43:39
Flight Rules unknown UNKNOWN
WindVRB at 06 kt
VisibilityN/A
Phenomena:N/A
Clouds:N/A
Expected CloudBase > 4,400 ft AGL from Temp-Dew spread
CeilingNone
Temp31°C (ISA +17)
Dew Point20°C (52% RH)
Heat Index33.0°C
QNH1018 hPa
Density Alt2,323 ft
Elevation285 ft
Report Wrong Elevation
Raw Report
METAR KEUF 251958Z AUTO VRB06KT CLR 31/20 A3007 RMK AO2 SLP180 T03060200=

Extra information for KEUF:More info

Metar Taf Metar & Taf Last 4 Metars F.Rules Stats Wind Profile Meteogram Temp Stats Metar ALERT Operation Metar Decoded Social comments